createdAt,value
2017-12-21T00:00:39.906Z,48.97
2017-12-21T00:01:42.440Z,42.80
2017-12-21T00:02:44.922Z,33.47
2017-12-21T00:03:47.379Z,35.10
2017-12-21T00:04:49.856Z,41.15
2017-12-21T00:05:52.339Z,35.97
2017-12-21T00:06:54.799Z,38.88
2017-12-21T00:07:57.271Z,37.15
2017-12-21T00:09:01.075Z,40.38
2017-12-21T00:10:03.566Z,36.72
2017-12-21T00:11:06.049Z,35.28
2017-12-21T00:12:08.529Z,41.78
2017-12-21T00:13:11.124Z,31.17
2017-12-21T00:14:13.743Z,35.55
2017-12-21T00:15:16.236Z,39.85
2017-12-21T00:16:18.811Z,40.97
2017-12-21T00:17:21.270Z,40.55
2017-12-21T00:18:23.730Z,40.97
2017-12-21T00:19:26.190Z,36.22
2017-12-21T00:20:28.665Z,42.17
2017-12-21T00:21:31.122Z,34.88
2017-12-21T00:22:40.562Z,40.53
2017-12-21T00:23:43.019Z,31.30
2017-12-21T00:24:45.549Z,39.38
2017-12-21T00:25:48.011Z,28.62
2017-12-21T00:26:50.477Z,30.42
2017-12-21T00:27:52.994Z,33.90
2017-12-21T00:28:55.455Z,29.87
2017-12-21T00:29:57.928Z,37.20
2017-12-21T00:31:00.387Z,42.47
2017-12-21T00:32:02.879Z,30.60
2017-12-21T00:33:05.366Z,31.83
2017-12-21T00:34:07.861Z,34.95
2017-12-21T00:35:10.341Z,33.17
2017-12-21T00:36:12.798Z,27.98
2017-12-21T00:37:15.276Z,30.48
2017-12-21T00:38:17.768Z,28.48
2017-12-21T00:39:20.226Z,32.35
2017-12-21T00:40:22.704Z,30.35
2017-12-21T00:41:25.176Z,27.75
2017-12-21T00:42:27.638Z,35.53
2017-12-21T00:43:30.135Z,24.87
2017-12-21T00:44:32.617Z,24.30
2017-12-21T00:45:35.092Z,24.83
2017-12-21T00:46:37.569Z,31.95
2017-12-21T00:47:40.032Z,24.55
2017-12-21T00:48:42.526Z,25.37
2017-12-21T00:49:44.986Z,25.42
2017-12-21T00:50:47.467Z,23.70
2017-12-21T00:51:49.945Z,25.52
2017-12-21T00:52:52.423Z,22.80
2017-12-21T00:53:54.934Z,24.20
2017-12-21T00:54:57.416Z,23.87
2017-12-21T00:55:59.892Z,23.42
2017-12-21T00:57:02.369Z,20.75
2017-12-21T00:58:04.834Z,22.98
2017-12-21T00:59:07.328Z,29.33
2017-12-21T01:00:09.812Z,34.10
2017-12-21T01:01:12.269Z,30.60
2017-12-21T01:02:14.747Z,28.55
2017-12-21T01:03:17.244Z,29.08
2017-12-21T01:04:19.752Z,32.80
2017-12-21T01:05:22.230Z,26.25
2017-12-21T01:06:24.686Z,32.65
2017-12-21T01:07:27.144Z,34.30
2017-12-21T01:08:29.659Z,34.67
2017-12-21T01:09:32.112Z,31.87
2017-12-21T01:10:34.574Z,33.47
2017-12-21T01:11:37.054Z,31.45
2017-12-21T01:12:39.518Z,32.78
2017-12-21T01:13:42.005Z,30.75
2017-12-21T01:14:44.500Z,34.25
2017-12-21T01:15:46.979Z,34.05
2017-12-21T01:16:49.441Z,36.38
2017-12-21T01:17:51.918Z,32.45
2017-12-21T01:18:54.393Z,26.27
2017-12-21T01:19:56.933Z,31.30
2017-12-21T01:20:59.403Z,29.40
2017-12-21T01:22:01.876Z,28.73
2017-12-21T01:23:04.339Z,26.87
2017-12-21T01:24:06.818Z,24.67
2017-12-21T01:25:09.321Z,23.23
2017-12-21T01:26:11.782Z,24.95
2017-12-21T01:27:14.239Z,40.10
2017-12-21T01:28:16.716Z,35.53
2017-12-21T01:29:19.174Z,31.10
2017-12-21T01:30:21.677Z,29.73
2017-12-21T01:31:24.143Z,27.98
2017-12-21T01:32:26.624Z,31.27
2017-12-21T01:33:29.084Z,24.45
2017-12-21T01:34:31.556Z,25.00
2017-12-21T01:35:34.047Z,28.25
2017-12-21T01:36:36.518Z,30.75
2017-12-21T01:37:38.979Z,31.65
2017-12-21T01:38:41.452Z,32.80
2017-12-21T01:39:43.929Z,30.23
2017-12-21T01:40:46.421Z,25.67
2017-12-21T01:41:48.888Z,26.52
2017-12-21T01:42:51.351Z,31.58
2017-12-21T01:43:53.833Z,23.73
2017-12-21T01:44:56.304Z,26.60
2017-12-21T01:45:58.794Z,26.37
2017-12-21T01:47:01.268Z,24.37
2017-12-21T01:48:03.741Z,24.90
2017-12-21T01:49:06.199Z,21.42
2017-12-21T01:50:08.677Z,21.52
2017-12-21T01:51:11.154Z,23.73
2017-12-21T01:52:13.630Z,24.52
2017-12-21T01:53:16.109Z,22.37
2017-12-21T01:54:18.583Z,27.70
2017-12-21T01:55:21.054Z,26.55
2017-12-21T01:56:23.597Z,23.23
2017-12-21T01:57:26.069Z,26.83
2017-12-21T01:58:28.530Z,28.00
2017-12-21T01:59:31.079Z,28.02
2017-12-21T02:00:33.588Z,24.60
2017-12-21T02:01:36.085Z,26.40
2017-12-21T02:02:38.645Z,36.03
2017-12-21T02:03:41.102Z,30.77
2017-12-21T02:04:43.558Z,30.02
2017-12-21T02:05:47.242Z,31.05
2017-12-21T02:06:49.735Z,31.33
2017-12-21T02:07:52.212Z,24.52
2017-12-21T02:08:54.683Z,30.27
2017-12-21T02:09:57.146Z,29.52
2017-12-21T02:10:59.619Z,44.95
2017-12-21T02:12:02.125Z,29.33
2017-12-21T02:13:04.600Z,26.65
2017-12-21T02:14:07.066Z,30.55
2017-12-21T02:15:09.526Z,32.53
2017-12-21T02:16:11.982Z,28.20
2017-12-21T02:17:14.475Z,27.77
2017-12-21T02:18:16.934Z,23.70
2017-12-21T02:19:19.398Z,28.87
2017-12-21T02:20:21.877Z,43.53
2017-12-21T02:21:24.338Z,38.40
2017-12-21T02:22:31.552Z,90.55
2017-12-21T02:23:34.038Z,98.28
2017-12-21T02:24:36.521Z,26.48
2017-12-21T02:25:40.583Z,46.35
2017-12-21T02:26:43.046Z,34.92
2017-12-21T02:27:45.541Z,71.43
2017-12-21T02:28:48.006Z,47.95
2017-12-21T02:29:50.518Z,48.40
2017-12-21T02:30:53.010Z,37.75
2017-12-21T02:31:55.528Z,87.78
2017-12-21T02:32:58.011Z,24.25
2017-12-21T02:34:00.490Z,56.30
2017-12-21T02:35:02.972Z,60.97
2017-12-21T02:36:07.268Z,72.93
2017-12-21T02:37:09.727Z,33.75
2017-12-21T02:38:12.236Z,75.68
2017-12-21T02:39:14.750Z,104.90
2017-12-21T02:40:17.223Z,128.35
2017-12-21T02:41:19.685Z,70.85
2017-12-21T02:42:22.168Z,32.53
2017-12-21T02:43:24.648Z,47.55
2017-12-21T02:44:27.125Z,126.70
2017-12-21T02:45:29.593Z,78.50
2017-12-21T02:46:41.630Z,34.50
2017-12-21T02:47:44.092Z,49.72
2017-12-21T02:48:46.562Z,50.55
2017-12-21T02:49:49.609Z,32.13
2017-12-21T02:50:52.104Z,100.70
2017-12-21T02:51:54.600Z,34.13
2017-12-21T02:52:57.071Z,37.13
2017-12-21T02:53:59.545Z,71.07
2017-12-21T02:55:02.007Z,57.17
2017-12-21T02:56:04.512Z,69.47
2017-12-21T02:57:06.993Z,49.58
2017-12-21T02:58:09.455Z,144.25
2017-12-21T02:59:11.941Z,113.43
2017-12-21T03:00:20.800Z,33.97
2017-12-21T03:01:23.278Z,34.25
2017-12-21T03:02:25.776Z,33.05
2017-12-21T03:03:28.243Z,40.10
2017-12-21T03:04:30.699Z,32.08
2017-12-21T03:05:33.254Z,28.60
2017-12-21T03:06:35.791Z,103.85
2017-12-21T03:07:38.272Z,70.87
2017-12-21T03:08:42.542Z,36.63
2017-12-21T03:09:45.052Z,40.63
2017-12-21T03:10:47.519Z,42.35
2017-12-21T03:11:50.003Z,37.28
2017-12-21T03:12:52.540Z,33.60
2017-12-21T03:13:55.017Z,42.33
2017-12-21T03:14:57.493Z,37.88
2017-12-21T03:15:59.979Z,34.20
2017-12-21T03:17:02.434Z,36.42
2017-12-21T03:18:04.892Z,37.28
2017-12-21T03:19:07.372Z,41.10
2017-12-21T03:20:09.956Z,38.97
2017-12-21T03:21:12.419Z,40.72
2017-12-21T03:22:14.964Z,40.85
2017-12-21T03:23:17.451Z,131.18
2017-12-21T03:24:19.987Z,55.17
2017-12-21T03:25:22.460Z,44.40
2017-12-21T03:26:24.930Z,127.12
2017-12-21T03:27:27.409Z,80.80
2017-12-21T03:28:29.888Z,37.20
2017-12-21T03:29:32.372Z,72.12
2017-12-21T03:30:34.830Z,52.72
2017-12-21T03:31:37.305Z,48.45
2017-12-21T03:32:39.784Z,87.28
2017-12-21T03:33:42.250Z,39.10
2017-12-21T03:34:44.749Z,40.25
2017-12-21T03:35:47.219Z,64.20
2017-12-21T03:36:49.681Z,53.85
2017-12-21T03:37:52.142Z,45.12
2017-12-21T03:38:54.602Z,44.78
2017-12-21T03:39:57.082Z,62.08
2017-12-21T03:40:59.555Z,48.28
2017-12-21T03:42:02.027Z,44.33
2017-12-21T03:43:04.505Z,58.75
2017-12-21T03:44:07.091Z,52.83
2017-12-21T03:45:09.564Z,47.95
2017-12-21T03:46:12.026Z,77.53
2017-12-21T03:47:14.494Z,71.43
2017-12-21T03:48:16.972Z,100.55
2017-12-21T03:49:19.426Z,60.28
2017-12-21T03:50:21.894Z,44.72
2017-12-21T03:51:24.374Z,87.37
2017-12-21T03:52:26.850Z,42.92
2017-12-21T03:53:29.307Z,48.87
2017-12-21T03:54:31.774Z,59.88
2017-12-21T03:55:34.263Z,87.30
2017-12-21T03:56:36.721Z,57.08
2017-12-21T03:57:39.181Z,50.58
2017-12-21T03:58:41.646Z,51.03
2017-12-21T03:59:44.143Z,73.57
2017-12-21T04:00:46.627Z,39.80
2017-12-21T04:01:49.104Z,30.45
2017-12-21T04:02:51.608Z,34.85
2017-12-21T04:03:54.089Z,48.83
2017-12-21T04:04:56.552Z,32.78
2017-12-21T04:05:59.037Z,54.35
2017-12-21T04:07:01.513Z,82.57
2017-12-21T04:08:03.976Z,43.00
2017-12-21T04:09:06.448Z,46.10
2017-12-21T04:10:08.924Z,58.80
2017-12-21T04:11:11.402Z,40.22
2017-12-21T04:12:13.866Z,57.70
2017-12-21T04:13:16.327Z,30.15
2017-12-21T04:14:18.795Z,51.13
2017-12-21T04:15:21.259Z,43.03
2017-12-21T04:16:23.733Z,51.10
2017-12-21T04:17:26.195Z,38.95
2017-12-21T04:18:28.675Z,69.07
2017-12-21T04:19:31.139Z,29.05
2017-12-21T04:20:33.601Z,34.88
2017-12-21T04:21:36.059Z,67.57
2017-12-21T04:22:38.533Z,28.90
2017-12-21T04:23:41.013Z,30.10
2017-12-21T04:24:43.492Z,33.97
2017-12-21T04:25:45.960Z,39.72
2017-12-21T04:26:48.437Z,43.38
2017-12-21T04:27:50.894Z,42.55
2017-12-21T04:28:53.373Z,35.08
2017-12-21T04:29:55.852Z,39.25
2017-12-21T04:30:58.331Z,39.13
2017-12-21T04:32:00.790Z,40.38
2017-12-21T04:33:03.269Z,40.67
2017-12-21T04:34:05.730Z,39.97
2017-12-21T04:35:08.199Z,39.65
2017-12-21T04:36:10.677Z,52.33
2017-12-21T04:37:13.160Z,39.10
2017-12-21T04:38:15.637Z,45.40
2017-12-21T04:39:18.109Z,42.53
2017-12-21T04:40:20.571Z,47.40
2017-12-21T04:41:23.183Z,45.92
2017-12-21T04:42:25.642Z,45.35
2017-12-21T04:43:28.106Z,43.05
2017-12-21T04:44:30.569Z,41.13
2017-12-21T04:45:33.042Z,49.15
2017-12-21T04:46:35.502Z,46.45
2017-12-21T04:47:37.983Z,47.05
2017-12-21T04:48:40.455Z,50.92
2017-12-21T04:49:42.914Z,46.40
2017-12-21T04:50:45.378Z,42.38
2017-12-21T04:51:47.862Z,46.08
2017-12-21T04:52:50.318Z,41.10
2017-12-21T04:53:52.801Z,41.40
2017-12-21T04:54:55.269Z,45.97
2017-12-21T04:55:57.756Z,40.50
2017-12-21T04:57:00.215Z,42.05
2017-12-21T04:58:02.700Z,42.70
2017-12-21T04:59:05.158Z,45.85
2017-12-21T05:00:07.615Z,48.47
2017-12-21T05:01:10.086Z,46.55
2017-12-21T05:02:12.551Z,43.15
2017-12-21T05:03:15.024Z,43.03
2017-12-21T05:04:17.525Z,48.63
2017-12-21T05:05:19.984Z,47.70
2017-12-21T05:06:22.456Z,49.28
2017-12-21T05:07:24.918Z,50.90
2017-12-21T05:08:27.381Z,47.17
2017-12-21T05:09:29.852Z,46.05
2017-12-21T05:10:32.331Z,49.80
2017-12-21T05:11:34.806Z,44.15
2017-12-21T05:12:37.288Z,44.97
2017-12-21T05:13:39.765Z,44.53
2017-12-21T05:14:42.244Z,47.28
2017-12-21T05:15:44.716Z,46.55
2017-12-21T05:16:47.174Z,47.40
2017-12-21T05:17:49.648Z,41.10
2017-12-21T05:18:52.112Z,45.55
2017-12-21T05:19:54.600Z,51.88
2017-12-21T05:20:57.059Z,46.03
2017-12-21T05:21:59.532Z,49.65
2017-12-21T05:23:01.992Z,51.28
2017-12-21T05:24:04.472Z,45.40
2017-12-21T05:25:06.948Z,58.75
2017-12-21T05:26:09.410Z,44.67
2017-12-21T05:27:11.866Z,55.47
2017-12-21T05:28:14.330Z,50.50
2017-12-21T05:29:16.801Z,48.03
2017-12-21T05:30:19.262Z,49.78
2017-12-21T05:31:21.742Z,48.92
2017-12-21T05:32:24.221Z,53.22
2017-12-21T05:33:26.704Z,112.80
2017-12-21T05:34:29.185Z,52.65
2017-12-21T05:35:31.657Z,54.22
2017-12-21T05:36:34.133Z,60.92
2017-12-21T05:37:36.612Z,65.65
2017-12-21T05:38:39.091Z,57.92
2017-12-21T05:39:41.565Z,48.25
2017-12-21T05:40:44.029Z,51.65
2017-12-21T05:41:46.504Z,58.65
2017-12-21T05:42:48.976Z,46.20
2017-12-21T05:43:51.435Z,46.80
2017-12-21T05:44:53.926Z,55.35
2017-12-21T05:45:56.386Z,47.20
2017-12-21T05:46:58.864Z,56.13
2017-12-21T05:48:01.341Z,50.78
2017-12-21T05:49:03.817Z,78.78
2017-12-21T05:50:06.292Z,51.20
2017-12-21T05:51:08.772Z,63.67
2017-12-21T05:52:11.255Z,54.88
2017-12-21T05:53:13.715Z,63.35
2017-12-21T05:54:16.232Z,62.92
2017-12-21T05:55:18.658Z,60.10
2017-12-21T05:56:21.191Z,60.15
2017-12-21T05:57:23.654Z,61.67
2017-12-21T05:58:26.127Z,61.03
2017-12-21T05:59:28.636Z,69.15
2017-12-21T06:00:31.117Z,51.83
2017-12-21T06:01:33.598Z,56.63
2017-12-21T06:02:36.075Z,65.15
2017-12-21T06:03:38.574Z,63.10
2017-12-21T06:04:41.057Z,60.55
2017-12-21T06:05:43.533Z,68.47
2017-12-21T06:06:46.008Z,58.05
2017-12-21T06:07:48.466Z,66.50
2017-12-21T06:08:50.922Z,57.92
2017-12-21T06:09:53.424Z,60.30
2017-12-21T06:10:55.915Z,61.05
2017-12-21T06:11:58.378Z,52.58
2017-12-21T06:13:00.862Z,58.85
2017-12-21T06:14:03.325Z,53.45
2017-12-21T06:15:05.812Z,59.40
2017-12-21T06:16:08.289Z,57.78
2017-12-21T06:17:10.742Z,56.58
2017-12-21T06:18:13.212Z,72.95
2017-12-21T06:19:15.723Z,58.92
2017-12-21T06:20:18.186Z,58.55
2017-12-21T06:21:20.651Z,81.20
2017-12-21T06:22:23.218Z,62.22
2017-12-21T06:23:25.695Z,60.92
2017-12-21T06:24:28.198Z,63.30
2017-12-21T06:25:30.662Z,54.33
2017-12-21T06:26:33.130Z,49.03
2017-12-21T06:27:35.590Z,46.85
2017-12-21T06:28:38.108Z,49.65
2017-12-21T06:29:40.583Z,52.40
2017-12-21T06:30:43.090Z,43.85
2017-12-21T06:31:45.578Z,44.00
2017-12-21T06:32:48.039Z,42.60
2017-12-21T06:33:50.494Z,43.95
2017-12-21T06:34:53.026Z,61.08
2017-12-21T06:35:55.501Z,49.63
2017-12-21T06:36:57.959Z,47.97
2017-12-21T06:38:00.492Z,65.03
2017-12-21T06:39:02.970Z,54.72
2017-12-21T06:40:05.438Z,55.70
2017-12-21T06:41:07.907Z,52.22
2017-12-21T06:42:10.434Z,51.22
2017-12-21T06:43:12.918Z,55.60
2017-12-21T06:44:15.382Z,53.55
2017-12-21T06:45:17.844Z,57.30
2017-12-21T06:46:20.322Z,57.40
2017-12-21T06:47:22.840Z,62.22
2017-12-21T06:48:25.309Z,59.05
2017-12-21T06:49:27.770Z,56.60
2017-12-21T06:50:30.230Z,54.40
2017-12-21T06:51:32.722Z,46.50
2017-12-21T06:52:35.195Z,47.20
2017-12-21T06:53:37.742Z,58.22
2017-12-21T06:54:40.293Z,60.17
2017-12-21T06:55:42.768Z,60.15
2017-12-21T06:56:45.234Z,57.78
2017-12-21T06:57:47.739Z,61.55
2017-12-21T06:58:50.209Z,53.55
2017-12-21T06:59:52.724Z,55.88
2017-12-21T07:00:55.195Z,62.28
2017-12-21T07:01:57.660Z,57.35
2017-12-21T07:03:00.132Z,52.95
2017-12-21T07:04:02.594Z,64.68
2017-12-21T07:05:05.053Z,52.95
2017-12-21T07:06:07.534Z,57.75
2017-12-21T07:07:10.028Z,61.88
2017-12-21T07:08:12.512Z,61.42
2017-12-21T07:09:14.995Z,61.25
2017-12-21T07:10:17.606Z,53.22
2017-12-21T07:11:20.085Z,72.40
2017-12-21T07:12:22.565Z,63.10
2017-12-21T07:13:25.039Z,52.35
2017-12-21T07:14:27.506Z,64.00
2017-12-21T07:15:29.980Z,60.63
2017-12-21T07:16:32.470Z,46.88
2017-12-21T07:17:34.987Z,55.60
2017-12-21T07:18:37.545Z,56.50
2017-12-21T07:19:40.014Z,55.08
2017-12-21T07:20:42.497Z,47.60
2017-12-21T07:21:44.962Z,48.50
2017-12-21T07:22:47.448Z,47.45
2017-12-21T07:23:49.925Z,50.05
2017-12-21T07:24:52.391Z,73.95
2017-12-21T07:25:54.854Z,61.85
2017-12-21T07:26:57.335Z,58.65
2017-12-21T07:28:00.115Z,61.65
2017-12-21T07:29:02.616Z,70.40
2017-12-21T07:30:05.090Z,61.92
2017-12-21T07:31:07.560Z,59.95
2017-12-21T07:32:10.035Z,56.22
2017-12-21T07:33:12.508Z,58.85
2017-12-21T07:34:14.996Z,56.37
2017-12-21T07:35:17.473Z,58.85
2017-12-21T07:36:19.939Z,66.12
2017-12-21T07:37:22.416Z,54.85
2017-12-21T07:38:24.986Z,62.83
2017-12-21T07:39:27.473Z,64.03
2017-12-21T07:40:29.945Z,67.65
2017-12-21T07:41:32.461Z,70.20
2017-12-21T07:42:34.920Z,67.62
2017-12-21T07:43:37.731Z,68.68
2017-12-21T07:44:40.195Z,65.57
2017-12-21T07:45:42.703Z,61.17
2017-12-21T07:46:45.262Z,70.85
2017-12-21T07:47:47.719Z,65.55
2017-12-21T07:48:50.182Z,59.92
2017-12-21T07:49:52.666Z,56.37
2017-12-21T07:50:55.141Z,55.85
2017-12-21T07:51:57.613Z,53.47
2017-12-21T07:53:00.088Z,56.55
2017-12-21T07:54:02.563Z,57.92
2017-12-21T07:55:05.044Z,60.50
2017-12-21T07:56:07.533Z,58.95
2017-12-21T07:57:09.990Z,60.60
2017-12-21T07:58:12.453Z,57.50
2017-12-21T07:59:14.920Z,63.65
2017-12-21T08:00:17.384Z,55.50
2017-12-21T08:01:19.846Z,61.05
2017-12-21T08:02:22.321Z,69.90
2017-12-21T08:03:24.999Z,64.20
2017-12-21T08:04:27.938Z,54.70
2017-12-21T08:05:30.395Z,73.50
2017-12-21T08:06:32.854Z,57.90
2017-12-21T08:07:35.313Z,62.97
2017-12-21T08:08:37.786Z,62.45
2017-12-21T08:09:40.289Z,57.90
2017-12-21T08:10:42.783Z,66.85
2017-12-21T08:11:45.261Z,59.90
2017-12-21T08:12:47.720Z,73.78
2017-12-21T08:13:50.196Z,65.90
2017-12-21T08:14:52.676Z,53.30
2017-12-21T08:15:55.149Z,62.78
2017-12-21T08:16:57.615Z,68.00
2017-12-21T08:18:00.084Z,60.65
2017-12-21T08:19:02.556Z,75.12
2017-12-21T08:20:05.141Z,64.20
2017-12-21T08:21:07.603Z,54.85
2017-12-21T08:22:10.089Z,56.22
2017-12-21T08:23:12.561Z,62.30
2017-12-21T08:24:15.044Z,61.33
2017-12-21T08:25:17.520Z,55.47
2017-12-21T08:26:20.022Z,59.95
2017-12-21T08:27:22.563Z,61.50
2017-12-21T08:28:25.045Z,55.47
2017-12-21T08:29:27.516Z,58.63
2017-12-21T08:30:30.006Z,59.72
2017-12-21T08:31:32.502Z,56.92
2017-12-21T08:32:34.987Z,63.25
2017-12-21T08:33:37.472Z,63.72
2017-12-21T08:34:39.934Z,66.53
2017-12-21T08:35:42.414Z,70.43
2017-12-21T08:36:44.937Z,59.28
2017-12-21T08:37:47.412Z,61.80
2017-12-21T08:38:49.913Z,58.17
2017-12-21T08:39:52.381Z,59.42
2017-12-21T08:40:54.856Z,62.78
2017-12-21T08:41:57.333Z,66.57
2017-12-21T08:42:59.839Z,68.32
2017-12-21T08:44:02.330Z,71.50
2017-12-21T08:45:04.791Z,75.72
2017-12-21T08:46:07.256Z,65.57
2017-12-21T08:47:09.718Z,65.95
2017-12-21T08:48:12.190Z,67.50
2017-12-21T08:49:14.676Z,76.37
2017-12-21T08:50:17.143Z,68.32
2017-12-21T08:51:19.620Z,77.25
2017-12-21T08:52:22.088Z,78.32
2017-12-21T08:53:24.565Z,94.47
2017-12-21T08:54:27.022Z,91.03
2017-12-21T08:55:29.505Z,102.03
2017-12-21T08:56:31.970Z,76.30
2017-12-21T08:57:34.536Z,93.43
2017-12-21T08:58:37.016Z,69.50
2017-12-21T08:59:39.487Z,61.58
2017-12-21T09:00:41.951Z,63.22
2017-12-21T09:01:44.439Z,64.68
2017-12-21T09:02:46.926Z,72.55
2017-12-21T09:03:49.404Z,87.37
2017-12-21T09:04:51.946Z,83.78
2017-12-21T09:05:54.425Z,92.10
2017-12-21T09:06:56.882Z,79.95
2017-12-21T09:07:59.724Z,71.15
2017-12-21T09:09:02.200Z,61.75
2017-12-21T09:10:04.743Z,71.47
2017-12-21T09:11:07.207Z,62.15
2017-12-21T09:12:09.674Z,57.65
2017-12-21T09:13:12.149Z,67.87
2017-12-21T09:14:14.615Z,56.17
2017-12-21T09:15:17.327Z,51.37
2017-12-21T09:16:20.961Z,54.42
2017-12-21T09:17:23.845Z,63.58
2017-12-21T09:18:26.315Z,52.62
2017-12-21T09:19:28.788Z,62.25
2017-12-21T09:20:31.268Z,63.95
2017-12-21T09:21:33.730Z,51.70
2017-12-21T09:22:36.211Z,59.25
2017-12-21T09:23:43.123Z,58.35
2017-12-21T09:24:45.594Z,56.78
2017-12-21T09:25:48.080Z,58.28
2017-12-21T09:26:50.543Z,65.30
2017-12-21T09:27:53.280Z,49.78
2017-12-21T09:28:55.767Z,49.42
2017-12-21T09:29:58.240Z,58.78
2017-12-21T09:31:00.700Z,51.63
2017-12-21T09:32:03.213Z,53.03
2017-12-21T09:33:05.688Z,40.88
2017-12-21T09:34:08.219Z,46.83
2017-12-21T09:35:10.694Z,49.15
2017-12-21T09:36:13.163Z,43.85
2017-12-21T09:37:15.663Z,48.95
2017-12-21T09:38:18.157Z,40.22
2017-12-21T09:39:20.629Z,42.20
2017-12-21T09:40:23.088Z,53.00
2017-12-21T09:41:25.568Z,44.42
2017-12-21T09:42:28.023Z,54.20
2017-12-21T09:43:30.502Z,45.85
2017-12-21T09:44:32.994Z,46.03
2017-12-21T09:45:35.452Z,39.75
2017-12-21T09:46:37.926Z,41.58
2017-12-21T09:47:40.432Z,40.30
2017-12-21T09:48:42.926Z,35.83
2017-12-21T09:49:45.378Z,41.17
2017-12-21T09:50:47.876Z,41.90
2017-12-21T09:51:54.667Z,49.35
2017-12-21T09:52:57.265Z,39.63
2017-12-21T09:54:00.129Z,43.22
2017-12-21T09:55:02.620Z,39.13
2017-12-21T09:56:05.133Z,41.75
2017-12-21T09:57:07.619Z,37.63
2017-12-21T09:58:10.128Z,43.20
2017-12-21T09:59:12.603Z,37.17
2017-12-21T10:00:15.107Z,39.78
2017-12-21T10:01:17.571Z,32.22
2017-12-21T10:02:20.034Z,35.33
2017-12-21T10:03:22.549Z,36.28
2017-12-21T10:04:25.307Z,37.28
2017-12-21T10:05:27.835Z,40.00
2017-12-21T10:06:30.620Z,34.13
2017-12-21T10:07:33.116Z,40.85
2017-12-21T10:08:35.580Z,31.80
2017-12-21T10:09:38.259Z,40.38
2017-12-21T10:10:40.753Z,31.05
2017-12-21T10:11:43.278Z,38.25
2017-12-21T10:12:45.754Z,26.87
2017-12-21T10:13:48.249Z,35.80
2017-12-21T10:14:50.710Z,32.15
2017-12-21T10:15:53.232Z,25.70
2017-12-21T10:16:55.745Z,28.55
2017-12-21T10:17:58.365Z,22.17
2017-12-21T10:19:00.845Z,33.53
2017-12-21T10:20:03.342Z,27.98
2017-12-21T10:21:05.883Z,31.00
2017-12-21T10:22:08.419Z,25.10
2017-12-21T10:23:10.917Z,28.87
2017-12-21T10:24:13.387Z,24.95
2017-12-21T10:25:15.902Z,26.23
2017-12-21T10:26:18.377Z,25.05
2017-12-21T10:27:20.896Z,24.35
2017-12-21T10:28:23.370Z,24.02
2017-12-21T10:29:25.953Z,24.52
2017-12-21T10:30:28.483Z,22.27
2017-12-21T10:31:31.822Z,25.67
2017-12-21T10:32:34.302Z,23.83
2017-12-21T10:33:36.765Z,28.58
2017-12-21T10:34:39.267Z,22.08
2017-12-21T10:35:41.781Z,21.25
2017-12-21T10:36:44.247Z,23.75
2017-12-21T10:37:46.736Z,27.67
2017-12-21T10:38:49.198Z,25.83
2017-12-21T10:39:51.673Z,30.10
2017-12-21T10:40:54.391Z,25.58
2017-12-21T10:41:57.326Z,22.92
2017-12-21T10:42:59.855Z,23.23
2017-12-21T10:44:02.330Z,26.65
2017-12-21T10:45:04.791Z,22.25
2017-12-21T10:46:07.258Z,22.80
2017-12-21T10:47:09.749Z,20.40
2017-12-21T10:48:12.242Z,20.90
2017-12-21T10:49:14.734Z,20.23
2017-12-21T10:50:17.221Z,23.10
2017-12-21T10:51:19.707Z,24.17
2017-12-21T10:52:22.194Z,21.62
2017-12-21T10:53:24.769Z,25.65
2017-12-21T10:54:27.289Z,18.85
2017-12-21T10:55:29.869Z,18.17
2017-12-21T10:56:32.329Z,25.37
2017-12-21T10:57:34.829Z,25.65
2017-12-21T10:58:37.290Z,16.73
2017-12-21T10:59:39.746Z,14.07
2017-12-21T11:00:42.274Z,21.35
2017-12-21T11:01:44.752Z,19.98
2017-12-21T11:02:47.215Z,16.17
2017-12-21T11:03:49.697Z,17.60
2017-12-21T11:04:52.205Z,17.08
2017-12-21T11:05:55.002Z,21.48
2017-12-21T11:06:57.498Z,18.12
2017-12-21T11:08:00.005Z,19.55
2017-12-21T11:09:02.562Z,14.25
2017-12-21T11:10:05.160Z,15.52
2017-12-21T11:11:07.893Z,16.85
2017-12-21T11:12:10.347Z,13.90
2017-12-21T11:13:12.819Z,17.35
2017-12-21T11:14:15.284Z,12.90
2017-12-21T11:15:17.771Z,17.42
2017-12-21T11:16:20.235Z,15.40
2017-12-21T11:17:22.709Z,13.50
2017-12-21T11:18:25.185Z,15.40
2017-12-21T11:19:27.676Z,13.38
2017-12-21T11:20:30.144Z,14.52
2017-12-21T11:21:32.618Z,14.57
2017-12-21T11:22:35.092Z,14.25
2017-12-21T11:23:37.581Z,17.52
2017-12-21T11:24:40.184Z,14.98
2017-12-21T11:25:42.780Z,17.90
2017-12-21T11:26:45.261Z,12.55
2017-12-21T11:27:47.761Z,14.60
2017-12-21T11:28:50.231Z,12.82
2017-12-21T11:29:52.710Z,10.65
2017-12-21T11:30:55.219Z,14.90
2017-12-21T11:31:57.700Z,17.08
2017-12-21T11:33:00.187Z,14.70
2017-12-21T11:34:02.656Z,14.63
2017-12-21T11:35:05.118Z,12.68
2017-12-21T11:36:07.590Z,14.27
2017-12-21T11:37:10.061Z,14.10
2017-12-21T11:38:12.638Z,17.52
2017-12-21T11:39:15.137Z,19.25
2017-12-21T11:40:17.616Z,18.27
2017-12-21T11:41:20.074Z,16.83
2017-12-21T11:42:22.557Z,19.02
2017-12-21T11:43:25.032Z,15.02
2017-12-21T11:44:27.513Z,14.50
2017-12-21T11:45:29.974Z,18.15
2017-12-21T11:46:32.532Z,16.45
2017-12-21T11:47:35.024Z,17.77
2017-12-21T11:48:37.478Z,18.33
2017-12-21T11:49:41.310Z,14.38
2017-12-21T11:50:43.809Z,20.98
2017-12-21T11:51:46.288Z,16.60
2017-12-21T11:52:48.764Z,25.27
2017-12-21T11:53:51.240Z,20.17
2017-12-21T11:54:53.725Z,21.35
2017-12-21T11:55:56.207Z,23.27
2017-12-21T11:56:58.672Z,23.48
2017-12-21T11:58:01.147Z,21.60
2017-12-21T11:59:03.673Z,26.05
2017-12-21T12:00:06.153Z,20.83
2017-12-21T12:01:08.607Z,19.65
2017-12-21T12:02:11.071Z,23.17
2017-12-21T12:03:13.534Z,19.80
2017-12-21T12:04:16.171Z,28.08
2017-12-21T12:05:18.627Z,23.10
2017-12-21T12:06:21.190Z,23.55
2017-12-21T12:07:23.665Z,23.85
2017-12-21T12:08:26.202Z,25.48
2017-12-21T12:09:28.667Z,20.62
2017-12-21T12:10:31.127Z,22.00
2017-12-21T12:11:33.639Z,31.15
2017-12-21T12:12:36.116Z,32.50
2017-12-21T12:13:38.587Z,29.80
2017-12-21T12:14:41.042Z,26.05
2017-12-21T12:15:44.364Z,28.30
2017-12-21T12:16:46.839Z,35.50
2017-12-21T12:17:49.320Z,26.62
2017-12-21T12:18:51.782Z,31.08
2017-12-21T12:19:54.373Z,30.58
2017-12-21T12:20:56.839Z,36.75
2017-12-21T12:21:59.310Z,28.40
2017-12-21T12:23:01.792Z,34.00
2017-12-21T12:24:04.251Z,31.67
2017-12-21T12:25:06.800Z,29.50
2017-12-21T12:26:09.285Z,30.15
2017-12-21T12:27:11.746Z,31.55
2017-12-21T12:28:14.310Z,24.15
2017-12-21T12:29:16.784Z,34.53
2017-12-21T12:30:19.261Z,37.60
2017-12-21T12:31:21.728Z,31.62
2017-12-21T12:32:24.329Z,24.25
2017-12-21T12:33:26.859Z,25.52
2017-12-21T12:34:29.327Z,23.85
2017-12-21T12:35:31.819Z,26.75
2017-12-21T12:36:34.294Z,31.02
2017-12-21T12:37:36.767Z,31.77
2017-12-21T12:38:39.252Z,29.80
2017-12-21T12:39:41.726Z,31.00
2017-12-21T12:40:44.183Z,28.15
2017-12-21T12:41:46.696Z,31.50
2017-12-21T12:42:49.162Z,25.95
2017-12-21T12:43:51.650Z,24.75
2017-12-21T12:44:54.139Z,23.73
2017-12-21T12:45:56.631Z,30.02
2017-12-21T12:46:59.103Z,32.75
2017-12-21T12:48:01.593Z,26.65
2017-12-21T12:49:04.067Z,24.00
2017-12-21T12:50:06.540Z,25.37
2017-12-21T12:51:09.017Z,27.35
2017-12-21T12:52:11.494Z,27.17
2017-12-21T12:53:14.008Z,26.83
2017-12-21T12:54:16.634Z,26.30
2017-12-21T12:55:19.094Z,27.45
2017-12-21T12:56:21.559Z,30.30
2017-12-21T12:57:24.023Z,35.30
2017-12-21T12:58:26.496Z,38.33
2017-12-21T12:59:28.968Z,34.47
2017-12-21T13:00:31.441Z,33.60
2017-12-21T13:01:33.927Z,33.47
2017-12-21T13:02:36.410Z,33.35
2017-12-21T13:03:38.941Z,28.38
2017-12-21T13:04:41.408Z,34.72
2017-12-21T13:05:43.939Z,29.55
2017-12-21T13:06:46.417Z,34.83
2017-12-21T13:07:48.896Z,34.22
2017-12-21T13:08:51.367Z,36.60
2017-12-21T13:09:53.849Z,30.67
2017-12-21T13:10:56.340Z,23.95
2017-12-21T13:11:58.846Z,26.20
2017-12-21T13:13:01.325Z,36.22
2017-12-21T13:14:03.811Z,27.05
2017-12-21T13:15:06.275Z,32.60
2017-12-21T13:16:08.761Z,36.53
2017-12-21T13:17:11.234Z,30.35
2017-12-21T13:18:13.721Z,27.27
2017-12-21T13:19:16.177Z,26.35
2017-12-21T13:20:18.660Z,23.17
2017-12-21T13:21:21.125Z,29.42
2017-12-21T13:22:23.602Z,30.12
2017-12-21T13:23:26.085Z,27.00
2017-12-21T13:24:28.572Z,24.45
2017-12-21T13:25:31.030Z,28.23